Plum Grove, Texas
Current Conditions -  °F | °C
As of 7:15 PM on Friday 19 Dec 2014 (Local Time) from K6R3 Reporting Station
Haze Haze  
Wind Chill: 52°   Ceiling: 600
Heat Index: 52°   Visibility: 5mi
Dew Point: 51°   Wind: 6mph
Humidity: 97%   Direction: 20°NNE
Pressure: 30.11"   Gusts: NA
Location:  30.2945°N, 94.9711°W
Report Text: K6R3 200115Z AUTO 02005KT 5SM BR OVC006 11/11 A3011 RMK AO2 T01100106
Loading
Personal Weather Stations






























Interactive Weather Map New forecast layout! Learn more

10-Day Weather Forecast

Advertisements
Track Severe Weather on mobile